createdAt,value
2022-08-05T00:00:18.971Z,24.11
2022-08-05T00:02:51.486Z,24.04
2022-08-05T00:06:02.817Z,24.01
2022-08-05T00:08:34.773Z,23.95
2022-08-05T00:11:00.932Z,23.91
2022-08-05T00:13:38.981Z,23.88
2022-08-05T00:16:12.537Z,23.85
2022-08-05T00:18:42.172Z,23.83
2022-08-05T00:21:10.809Z,23.78
2022-08-05T00:23:46.164Z,23.78
2022-08-05T00:26:16.577Z,23.75
2022-08-05T00:28:46.120Z,23.74
2022-08-05T00:31:14.318Z,23.71
2022-08-05T00:34:55.133Z,23.69
2022-08-05T00:37:11.419Z,23.65
2022-08-05T00:39:18.694Z,23.64
2022-08-05T00:41:54.996Z,23.62
2022-08-05T00:44:30.421Z,23.57
2022-08-05T00:47:02.080Z,23.53
2022-08-05T00:49:44.463Z,23.47
2022-08-05T00:52:28.332Z,23.43
2022-08-05T00:54:57.203Z,23.38
2022-08-05T00:57:38.445Z,23.33
2022-08-05T01:00:16.990Z,23.24
2022-08-05T01:02:47.051Z,23.19
2022-08-05T01:05:18.492Z,23.11
2022-08-05T01:08:30.292Z,23.06
2022-08-05T01:10:39.852Z,23.06
2022-08-05T01:13:27.475Z,23.07
2022-08-05T01:16:20.922Z,23.04
2022-08-05T01:18:56.616Z,23.00
2022-08-05T01:21:53.902Z,22.99
2022-08-05T01:24:37.140Z,22.91
2022-08-05T01:27:17.857Z,22.88
2022-08-05T01:29:51.866Z,22.86
2022-08-05T01:32:24.080Z,22.81
2022-08-05T01:34:58.996Z,22.76
2022-08-05T01:37:33.849Z,22.75
2022-08-05T01:40:07.686Z,22.72
2022-08-05T01:42:38.032Z,22.68
2022-08-05T01:45:11.286Z,22.63
2022-08-05T01:47:43.490Z,22.62
2022-08-05T01:50:15.538Z,22.61
2022-08-05T01:52:49.734Z,22.57
2022-08-05T01:55:19.364Z,22.53
2022-08-05T01:58:09.879Z,22.49
2022-08-05T02:00:44.365Z,22.44
2022-08-05T02:03:24.194Z,22.41
2022-08-05T02:05:59.648Z,22.37
2022-08-05T02:08:29.722Z,22.37
2022-08-05T02:11:03.893Z,22.34
2022-08-05T02:13:53.216Z,22.33
2022-08-05T02:16:29.809Z,22.28
2022-08-05T02:19:02.735Z,22.27
2022-08-05T02:21:43.245Z,22.27
2022-08-05T02:24:19.207Z,22.24
2022-08-05T02:26:54.858Z,22.24
2022-08-05T02:29:58.153Z,22.20
2022-08-05T02:32:23.954Z,22.18
2022-08-05T02:34:58.881Z,22.16
2022-08-05T02:37:32.173Z,22.14
2022-08-05T02:40:00.927Z,22.13
2022-08-05T02:42:34.276Z,22.09
2022-08-05T02:45:05.022Z,22.05
2022-08-05T02:48:06.452Z,22.01
2022-08-05T02:50:24.682Z,21.94
2022-08-05T02:52:53.713Z,21.88
2022-08-05T02:55:54.833Z,21.83
2022-08-05T02:58:13.358Z,21.82
2022-08-05T03:00:41.838Z,21.79
2022-08-05T03:03:16.499Z,21.75
2022-08-05T03:06:56.475Z,21.71
2022-08-05T03:08:33.761Z,21.68
2022-08-05T03:11:54.443Z,21.62
2022-08-05T03:13:51.694Z,21.61
2022-08-05T03:16:31.833Z,21.58
2022-08-05T03:19:04.246Z,21.58
2022-08-05T03:21:49.296Z,21.58
2022-08-05T03:24:23.613Z,21.55
2022-08-05T03:26:58.799Z,21.48
2022-08-05T03:29:44.745Z,21.45
2022-08-05T03:32:17.180Z,21.42
2022-08-05T03:34:50.474Z,21.37
2022-08-05T03:37:20.846Z,21.38
2022-08-05T03:40:01.843Z,21.37
2022-08-05T03:42:41.430Z,21.34
2022-08-05T03:45:21.846Z,21.33
2022-08-05T03:47:51.225Z,21.27
2022-08-05T03:50:21.537Z,21.18
2022-08-05T03:55:53.359Z,21.02
2022-08-05T03:56:05.120Z,20.97
2022-08-05T03:58:37.997Z,20.91
2022-08-05T04:01:11.183Z,20.87
2022-08-05T04:04:09.242Z,20.83
2022-08-05T04:06:34.762Z,20.78
2022-08-05T04:09:06.006Z,20.74
2022-08-05T04:11:47.483Z,20.73
2022-08-05T04:14:19.718Z,20.66
2022-08-05T04:17:00.701Z,20.62
2022-08-05T04:19:29.682Z,20.57
2022-08-05T04:22:08.179Z,20.56
2022-08-05T04:24:44.425Z,20.50
2022-08-05T04:27:41.586Z,20.44
2022-08-05T04:30:10.415Z,20.41
2022-08-05T04:32:39.069Z,20.36
2022-08-05T04:35:13.517Z,20.24
2022-08-05T04:38:00.963Z,20.03
2022-08-05T04:40:34.617Z,20.14
2022-08-05T04:43:03.021Z,20.13
2022-08-05T04:45:48.231Z,20.15
2022-08-05T04:48:27.684Z,20.12
2022-08-05T04:51:03.116Z,20.10
2022-08-05T04:53:39.514Z,20.11
2022-08-05T04:56:33.577Z,20.13
2022-08-05T04:58:57.234Z,20.14
2022-08-05T05:02:04.053Z,20.15
2022-08-05T05:04:13.681Z,20.18
2022-08-05T05:06:49.222Z,20.21
2022-08-05T05:09:22.010Z,20.02
2022-08-05T05:11:53.207Z,19.99
2022-08-05T05:14:31.413Z,20.14
2022-08-05T05:17:00.518Z,20.24
2022-08-05T05:19:36.975Z,20.26
2022-08-05T05:22:23.489Z,20.32
2022-08-05T05:24:57.732Z,20.38
2022-08-05T05:27:44.231Z,20.41
2022-08-05T05:30:28.745Z,20.47
2022-08-05T05:33:08.771Z,20.53
2022-08-05T05:35:44.848Z,20.57
2022-08-05T05:38:14.199Z,20.59
2022-08-05T05:40:47.924Z,20.64
2022-08-05T05:43:22.432Z,20.69
2022-08-05T05:46:13.657Z,20.71
2022-08-05T05:48:44.820Z,20.82
2022-08-05T05:51:19.696Z,20.86
2022-08-05T05:53:57.775Z,20.90
2022-08-05T05:56:32.984Z,20.91
2022-08-05T05:59:05.500Z,20.91
2022-08-05T06:01:37.578Z,21.00
2022-08-05T06:04:08.198Z,21.10
2022-08-05T06:06:41.782Z,21.18
2022-08-05T06:09:17.094Z,21.26
2022-08-05T06:12:01.674Z,21.34
2022-08-05T06:14:31.136Z,21.43
2022-08-05T06:16:59.678Z,21.48
2022-08-05T06:19:34.440Z,21.55
2022-08-05T06:22:03.461Z,21.63
2022-08-05T06:24:31.638Z,21.73
2022-08-05T06:27:01.199Z,21.83
2022-08-05T06:29:46.447Z,21.91
2022-08-05T06:32:26.281Z,22.05
2022-08-05T06:34:58.539Z,22.16
2022-08-05T06:37:56.656Z,22.25
2022-08-05T06:40:18.384Z,22.37
2022-08-05T06:42:51.998Z,22.52
2022-08-05T06:46:03.412Z,22.61
2022-08-05T06:48:37.044Z,22.74
2022-08-05T06:51:02.310Z,22.83
2022-08-05T06:53:39.320Z,22.90
2022-08-05T06:56:11.666Z,22.98
2022-08-05T06:58:55.732Z,23.08
2022-08-05T07:01:32.107Z,23.20
2022-08-05T07:04:03.184Z,23.29
2022-08-05T07:06:31.892Z,23.37
2022-08-05T07:09:04.075Z,23.47
2022-08-05T07:11:37.006Z,23.58
2022-08-05T07:14:29.252Z,23.65
2022-08-05T07:17:58.472Z,23.75
2022-08-05T07:22:37.524Z,23.95
2022-08-05T07:25:23.191Z,24.07
2022-08-05T07:27:58.072Z,24.16
2022-08-05T07:30:38.733Z,24.28
2022-08-05T07:33:15.752Z,24.37
2022-08-05T07:36:04.525Z,24.48
2022-08-05T07:38:43.140Z,24.54
2022-08-05T07:42:08.761Z,24.62
2022-08-05T07:44:04.764Z,24.69
2022-08-05T07:46:34.601Z,24.79
2022-08-05T07:49:06.214Z,24.90
2022-08-05T07:51:48.555Z,25.00
2022-08-05T07:54:31.286Z,25.05
2022-08-05T07:57:17.611Z,25.16
2022-08-05T07:59:50.338Z,25.28
2022-08-05T08:02:26.844Z,25.38
2022-08-05T08:04:59.907Z,25.39
2022-08-05T08:07:29.174Z,25.44
2022-08-05T08:10:08.311Z,25.41
2022-08-05T08:12:49.588Z,25.55
2022-08-05T08:15:18.059Z,25.62
2022-08-05T08:18:13.807Z,25.67
2022-08-05T08:21:02.364Z,25.72
2022-08-05T08:24:01.192Z,25.77
2022-08-05T08:26:29.546Z,25.83
2022-08-05T08:29:22.266Z,25.91
2022-08-05T08:31:47.304Z,25.99
2022-08-05T08:34:18.640Z,26.07
2022-08-05T08:36:51.871Z,26.16
2022-08-05T08:39:24.686Z,26.23
2022-08-05T08:41:59.894Z,26.26
2022-08-05T08:45:24.975Z,26.33
2022-08-05T08:48:07.685Z,26.41
2022-08-05T08:50:29.988Z,26.39
2022-08-05T08:53:08.049Z,26.39
2022-08-05T08:56:04.997Z,26.45
2022-08-05T08:58:43.098Z,26.49
2022-08-05T09:01:15.776Z,26.50
2022-08-05T09:03:48.107Z,26.60
2022-08-05T09:06:21.418Z,26.62
2022-08-05T09:08:52.270Z,26.70
2022-08-05T09:11:53.354Z,26.76
2022-08-05T09:14:54.289Z,26.80
2022-08-05T09:16:57.714Z,26.81
2022-08-05T09:19:28.025Z,26.89
2022-08-05T09:22:23.341Z,27.04
2022-08-05T09:25:00.510Z,27.11
2022-08-05T09:28:04.891Z,27.18
2022-08-05T09:30:24.517Z,27.28
2022-08-05T09:32:52.971Z,27.42
2022-08-05T09:35:27.140Z,27.48
2022-08-05T09:38:16.907Z,27.49
2022-08-05T09:40:52.545Z,27.59
2022-08-05T09:43:41.043Z,27.56
2022-08-05T09:46:27.630Z,27.68
2022-08-05T09:49:07.058Z,27.91
2022-08-05T09:51:40.026Z,27.96
2022-08-05T09:54:11.468Z,27.97
2022-08-05T09:56:40.236Z,28.06
2022-08-05T09:59:19.764Z,28.10
2022-08-05T10:01:48.382Z,28.17
2022-08-05T10:04:36.307Z,28.15
2022-08-05T10:07:20.541Z,28.19
2022-08-05T10:10:13.815Z,28.25
2022-08-05T10:12:49.221Z,28.30
2022-08-05T10:15:25.967Z,28.38
2022-08-05T10:18:07.465Z,28.42
2022-08-05T10:20:37.646Z,28.46
2022-08-05T10:23:08.930Z,28.51
2022-08-05T10:25:56.886Z,28.54
2022-08-05T10:28:29.166Z,28.57
2022-08-05T10:32:47.911Z,28.55
2022-08-05T10:33:54.212Z,28.62
2022-08-05T10:36:26.029Z,28.66
2022-08-05T10:39:02.529Z,28.70
2022-08-05T10:41:47.104Z,28.77
2022-08-05T10:44:19.666Z,28.81
2022-08-05T10:46:50.923Z,28.85
2022-08-05T10:49:27.420Z,28.96
2022-08-05T10:52:04.999Z,29.04
2022-08-05T10:54:56.710Z,29.07
2022-08-05T10:57:32.015Z,29.12
2022-08-05T11:00:19.688Z,29.01
2022-08-05T11:03:25.119Z,29.04
2022-08-05T11:06:05.125Z,28.98
2022-08-05T11:08:38.212Z,28.93
2022-08-05T11:11:44.629Z,29.00
2022-08-05T11:14:49.421Z,28.95
2022-08-05T11:17:59.783Z,29.07
2022-08-05T11:20:44.591Z,29.15
2022-08-05T11:24:05.020Z,29.32
2022-08-05T11:26:28.886Z,29.37
2022-08-05T11:29:11.709Z,29.44
2022-08-05T11:31:56.417Z,29.49
2022-08-05T11:34:51.420Z,29.54
2022-08-05T11:38:36.792Z,29.57
2022-08-05T11:41:01.325Z,29.67
2022-08-05T11:44:07.040Z,29.76
2022-08-05T11:46:33.214Z,29.87
2022-08-05T11:49:04.064Z,29.90
2022-08-05T11:51:43.971Z,29.92
2022-08-05T11:54:24.495Z,29.96
2022-08-05T11:57:08.196Z,30.05
2022-08-05T11:59:51.303Z,30.15
2022-08-05T12:02:30.718Z,30.32
2022-08-05T12:05:06.745Z,30.37
2022-08-05T12:08:03.732Z,30.34
2022-08-05T12:10:43.549Z,30.29
2022-08-05T12:13:47.713Z,30.37
2022-08-05T12:16:14.797Z,30.50
2022-08-05T12:18:49.489Z,30.59
2022-08-05T12:21:25.006Z,30.62
2022-08-05T12:24:07.351Z,30.59
2022-08-05T12:26:37.040Z,30.67
2022-08-05T12:29:09.553Z,30.78
2022-08-05T12:31:45.942Z,30.88
2022-08-05T12:34:21.224Z,30.95
2022-08-05T12:36:53.358Z,31.10
2022-08-05T12:39:22.202Z,31.14
2022-08-05T12:41:58.044Z,31.16
2022-08-05T12:44:33.431Z,31.25
2022-08-05T12:47:03.692Z,31.15
2022-08-05T12:50:03.630Z,31.09
2022-08-05T12:52:38.823Z,31.34
2022-08-05T12:55:22.174Z,31.38
2022-08-05T12:58:50.804Z,31.51
2022-08-05T13:01:59.783Z,31.47
2022-08-05T13:03:33.256Z,31.55
2022-08-05T13:06:02.380Z,31.70
2022-08-05T13:08:32.630Z,31.70
2022-08-05T13:11:02.043Z,31.79
2022-08-05T13:14:05.398Z,31.69
2022-08-05T13:16:20.775Z,31.70
2022-08-05T13:18:55.231Z,31.86
2022-08-05T13:21:27.701Z,32.05
2022-08-05T13:23:58.689Z,31.98
2022-08-05T13:26:30.160Z,31.83
2022-08-05T13:28:59.118Z,31.84
2022-08-05T13:32:03.363Z,31.91
2022-08-05T13:34:22.202Z,31.97
2022-08-05T13:36:53.494Z,32.24
2022-08-05T13:39:24.581Z,32.33
2022-08-05T13:42:14.442Z,32.48
2022-08-05T13:44:45.915Z,32.58
2022-08-05T13:47:35.008Z,32.80
2022-08-05T13:50:04.519Z,32.83
2022-08-05T13:52:35.671Z,32.91
2022-08-05T13:55:07.367Z,33.00
2022-08-05T13:57:50.936Z,32.87
2022-08-05T14:00:27.708Z,32.95
2022-08-05T14:02:57.093Z,32.96
2022-08-05T14:05:48.118Z,32.91
2022-08-05T14:08:20.341Z,32.94
2022-08-05T14:10:50.960Z,33.00
2022-08-05T14:13:19.018Z,33.05
2022-08-05T14:16:09.087Z,33.00
2022-08-05T14:18:39.476Z,33.11
2022-08-05T14:22:07.257Z,33.14
2022-08-05T14:23:55.910Z,33.05
2022-08-05T14:26:38.711Z,32.90
2022-08-05T14:29:16.641Z,32.90
2022-08-05T14:32:02.979Z,32.88
2022-08-05T14:34:35.207Z,32.77
2022-08-05T14:37:04.542Z,32.96
2022-08-05T14:39:49.311Z,33.12
2022-08-05T14:42:21.776Z,33.27
2022-08-05T14:44:50.340Z,33.55
2022-08-05T14:47:58.455Z,33.75
2022-08-05T14:50:17.775Z,33.80
2022-08-05T14:52:57.500Z,34.12
2022-08-05T14:55:38.597Z,34.16
2022-08-05T14:58:11.946Z,34.39
2022-08-05T15:00:58.187Z,34.49
2022-08-05T15:03:27.215Z,34.41
2022-08-05T15:06:07.425Z,34.64
2022-08-05T15:08:59.580Z,34.88
2022-08-05T15:11:52.593Z,35.07
2022-08-05T15:14:33.183Z,35.17
2022-08-05T15:17:04.302Z,35.29
2022-08-05T15:19:33.010Z,35.38
2022-08-05T15:22:01.774Z,35.49
2022-08-05T15:24:30.098Z,35.62
2022-08-05T15:26:58.972Z,35.68
2022-08-05T15:29:29.787Z,35.61
2022-08-05T15:32:03.065Z,35.41
2022-08-05T15:34:33.533Z,35.37
2022-08-05T15:37:06.086Z,35.42
2022-08-05T15:41:00.430Z,35.26
2022-08-05T15:42:54.835Z,35.55
2022-08-05T15:45:12.727Z,35.71
2022-08-05T15:47:41.312Z,35.74
2022-08-05T15:50:15.130Z,35.76
2022-08-05T15:52:52.694Z,35.79
2022-08-05T15:55:24.945Z,35.81
2022-08-05T15:58:16.360Z,35.73
2022-08-05T16:00:57.135Z,35.57
2022-08-05T16:03:36.607Z,35.60
2022-08-05T16:06:11.228Z,35.58
2022-08-05T16:08:39.851Z,35.52
2022-08-05T16:11:08.380Z,35.44
2022-08-05T16:13:36.566Z,35.42
2022-08-05T16:16:07.347Z,35.25
2022-08-05T16:18:52.164Z,35.07
2022-08-05T16:21:58.698Z,35.10
2022-08-05T16:24:38.769Z,35.00
2022-08-05T16:26:59.259Z,34.83
2022-08-05T16:29:31.126Z,35.00
2022-08-05T16:32:09.770Z,35.07
2022-08-05T16:34:39.375Z,35.00
2022-08-05T16:38:03.173Z,34.81
2022-08-05T16:40:05.300Z,34.70
2022-08-05T16:42:36.316Z,34.80
2022-08-05T16:46:02.718Z,34.69
2022-08-05T16:47:57.435Z,34.70
2022-08-05T16:50:29.550Z,34.63
2022-08-05T16:53:11.944Z,34.61
2022-08-05T16:55:46.906Z,34.61
2022-08-05T16:58:15.616Z,34.49
2022-08-05T17:00:49.639Z,34.36
2022-08-05T17:03:20.766Z,34.28
2022-08-05T17:05:53.873Z,34.13
2022-08-05T17:08:36.057Z,33.94
2022-08-05T17:11:17.359Z,33.76
2022-08-05T17:13:45.662Z,33.61
2022-08-05T17:16:29.729Z,33.37
2022-08-05T17:19:01.494Z,33.11
2022-08-05T17:21:35.565Z,32.87
2022-08-05T17:24:20.477Z,32.65
2022-08-05T17:26:52.524Z,32.27
2022-08-05T17:29:22.551Z,32.19
2022-08-05T17:32:01.172Z,32.06
2022-08-05T17:34:32.208Z,31.94
2022-08-05T17:37:04.605Z,31.83
2022-08-05T17:39:55.132Z,31.71
2022-08-05T17:42:29.761Z,31.52
2022-08-05T17:45:10.098Z,31.47
2022-08-05T17:47:51.348Z,31.35
2022-08-05T17:50:28.406Z,31.22
2022-08-05T17:52:59.977Z,31.13
2022-08-05T17:55:34.449Z,31.03
2022-08-05T17:58:12.385Z,30.95
2022-08-05T18:00:45.164Z,30.86
2022-08-05T18:03:39.322Z,30.78
2022-08-05T18:06:11.947Z,30.71
2022-08-05T18:08:45.738Z,30.65
2022-08-05T18:11:23.163Z,30.59
2022-08-05T18:13:53.392Z,30.52
2022-08-05T18:16:22.606Z,30.43
2022-08-05T18:18:50.901Z,30.42
2022-08-05T18:21:25.834Z,30.40
2022-08-05T18:23:54.512Z,30.35
2022-08-05T18:26:29.574Z,30.32
2022-08-05T18:30:01.190Z,30.17
2022-08-05T18:32:29.720Z,30.17
2022-08-05T18:34:57.951Z,30.13
2022-08-05T18:37:34.757Z,30.10
2022-08-05T18:41:50.239Z,29.98
2022-08-05T18:42:58.392Z,29.89
2022-08-05T18:45:41.578Z,29.78
2022-08-05T18:48:11.138Z,29.78
2022-08-05T18:50:57.093Z,29.71
2022-08-05T18:53:34.687Z,29.62
2022-08-05T18:56:12.595Z,29.58
2022-08-05T18:58:43.067Z,29.56
2022-08-05T19:01:18.033Z,29.48
2022-08-05T19:03:53.194Z,29.40
2022-08-05T19:06:37.184Z,29.34
2022-08-05T19:09:12.825Z,29.31
2022-08-05T19:12:00.075Z,29.33
2022-08-05T19:14:52.407Z,29.31
2022-08-05T19:17:17.228Z,29.29
2022-08-05T19:19:48.644Z,29.26
2022-08-05T19:22:17.752Z,29.20
2022-08-05T19:24:54.177Z,29.16
2022-08-05T19:27:27.724Z,29.14
2022-08-05T19:29:59.017Z,29.10
2022-08-05T19:32:27.644Z,29.04
2022-08-05T19:34:56.595Z,28.99
2022-08-05T19:37:29.887Z,28.98
2022-08-05T19:40:16.516Z,28.91
2022-08-05T19:43:04.522Z,28.84
2022-08-05T19:45:36.910Z,28.80
2022-08-05T19:48:06.522Z,28.77
2022-08-05T19:50:35.091Z,28.76
2022-08-05T19:53:10.735Z,28.70
2022-08-05T19:56:42.831Z,28.62
2022-08-05T19:59:51.517Z,28.60
2022-08-05T20:02:01.339Z,28.43
2022-08-05T20:04:31.183Z,28.50
2022-08-05T20:06:59.277Z,28.25
2022-08-05T20:09:30.102Z,28.23
2022-08-05T20:12:19.559Z,28.29
2022-08-05T20:14:50.093Z,28.35
2022-08-05T20:17:23.620Z,28.25
2022-08-05T20:19:56.645Z,27.91
2022-08-05T20:22:27.076Z,27.78
2022-08-05T20:24:55.970Z,27.41
2022-08-05T20:27:27.414Z,27.04
2022-08-05T20:30:11.508Z,26.57
2022-08-05T20:32:45.026Z,25.84
2022-08-05T20:35:13.715Z,25.19
2022-08-05T20:38:06.608Z,24.71
2022-08-05T20:40:31.149Z,24.49
2022-08-05T20:43:03.604Z,24.62
2022-08-05T20:45:55.931Z,24.76
2022-08-05T20:48:20.552Z,24.69
2022-08-05T20:50:48.683Z,24.57
2022-08-05T20:53:36.730Z,24.61
2022-08-05T20:56:08.838Z,24.39
2022-08-05T20:58:38.711Z,24.11
2022-08-05T21:01:06.895Z,24.22
2022-08-05T21:03:35.048Z,24.04
2022-08-05T21:06:03.143Z,23.74
2022-08-05T21:08:41.354Z,23.63
2022-08-05T21:11:12.115Z,23.82
2022-08-05T21:13:55.531Z,23.79
2022-08-05T21:16:29.904Z,23.74
2022-08-05T21:19:00.110Z,23.74
2022-08-05T21:21:43.909Z,23.77
2022-08-05T21:24:15.466Z,23.79
2022-08-05T21:26:50.558Z,23.77
2022-08-05T21:29:23.604Z,23.74
2022-08-05T21:31:54.820Z,23.64
2022-08-05T21:34:24.107Z,23.60
2022-08-05T21:36:53.885Z,23.59
2022-08-05T21:39:26.529Z,23.65
2022-08-05T21:42:01.084Z,23.60
2022-08-05T21:44:32.010Z,23.56
2022-08-05T21:47:00.359Z,23.51
2022-08-05T21:49:59.367Z,23.46
2022-08-05T21:52:28.108Z,23.45
2022-08-05T21:54:57.624Z,23.41
2022-08-05T21:57:34.845Z,23.40
2022-08-05T22:00:11.313Z,23.30
2022-08-05T22:02:43.998Z,23.17
2022-08-05T22:05:14.056Z,23.23
2022-08-05T22:08:07.125Z,23.26
2022-08-05T22:10:51.042Z,23.26
2022-08-05T22:14:19.561Z,23.23
2022-08-05T22:16:32.182Z,22.93
2022-08-05T22:18:58.746Z,22.97
2022-08-05T22:21:27.318Z,23.04
2022-08-05T22:24:39.637Z,23.06
2022-08-05T22:27:19.419Z,23.04
2022-08-05T22:29:47.816Z,23.01
2022-08-05T22:32:17.727Z,23.00
2022-08-05T22:34:46.055Z,23.02
2022-08-05T22:37:14.126Z,23.03
2022-08-05T22:39:42.314Z,23.02
2022-08-05T22:42:26.409Z,23.03
2022-08-05T22:44:56.701Z,23.01
2022-08-05T22:47:28.896Z,23.03
2022-08-05T22:50:19.698Z,22.99
2022-08-05T22:52:48.255Z,22.72
2022-08-05T22:55:19.366Z,22.77
2022-08-05T22:57:49.270Z,22.82
2022-08-05T23:00:20.773Z,22.81
2022-08-05T23:02:52.155Z,22.79
2022-08-05T23:05:22.223Z,22.77
2022-08-05T23:07:51.062Z,22.65
2022-08-05T23:10:20.828Z,22.59
2022-08-05T23:12:54.361Z,22.59
2022-08-05T23:15:29.057Z,22.50
2022-08-05T23:18:03.409Z,22.42
2022-08-05T23:20:37.311Z,22.28
2022-08-05T23:23:08.149Z,22.18
2022-08-05T23:25:51.365Z,22.01
2022-08-05T23:28:22.912Z,21.95
2022-08-05T23:30:53.712Z,21.79
2022-08-05T23:33:26.346Z,21.76
2022-08-05T23:36:13.621Z,21.63
2022-08-05T23:38:43.505Z,21.68
2022-08-05T23:41:12.792Z,21.61
2022-08-05T23:44:04.344Z,21.60
2022-08-05T23:46:29.759Z,21.46
2022-08-05T23:49:01.915Z,21.60
2022-08-05T23:52:02.084Z,21.39
2022-08-05T23:54:38.360Z,21.33
2022-08-05T23:57:07.642Z,21.52
